sensor_id;sensor_type;location;lat;lon;timestamp;temperature;humidity
38398;DHT22;24179;52.094;4.408;2022-12-07T00:01:35;4.70;99.90
38398;DHT22;24179;52.094;4.408;2022-12-07T00:04:36;4.60;99.90
38398;DHT22;24179;52.094;4.408;2022-12-07T00:07:37;4.50;99.90
38398;DHT22;24179;52.094;4.408;2022-12-07T00:10:37;4.40;99.90
38398;DHT22;24179;52.094;4.408;2022-12-07T00:13:38;4.20;99.90
38398;DHT22;24179;52.094;4.408;2022-12-07T00:16:38;4.10;99.90
38398;DHT22;24179;52.094;4.408;2022-12-07T00:19:39;3.90;99.90
38398;DHT22;24179;52.094;4.408;2022-12-07T00:22:39;3.80;99.90
38398;DHT22;24179;52.094;4.408;2022-12-07T00:25:39;3.70;99.90
38398;DHT22;24179;52.094;4.408;2022-12-07T00:28:40;3.60;99.90
38398;DHT22;24179;52.094;4.408;2022-12-07T00:31:41;3.50;99.90
38398;DHT22;24179;52.094;4.408;2022-12-07T00:34:41;3.50;99.90
38398;DHT22;24179;52.094;4.408;2022-12-07T00:37:42;3.40;99.90
38398;DHT22;24179;52.094;4.408;2022-12-07T00:40:42;3.40;99.90
38398;DHT22;24179;52.094;4.408;2022-12-07T00:43:43;3.40;99.90
38398;DHT22;24179;52.094;4.408;2022-12-07T00:46:44;3.30;99.90
38398;DHT22;24179;52.094;4.408;2022-12-07T00:49:45;3.20;99.90
38398;DHT22;24179;52.094;4.408;2022-12-07T00:52:46;3.30;99.90
38398;DHT22;24179;52.094;4.408;2022-12-07T00:55:46;3.40;99.90
38398;DHT22;24179;52.094;4.408;2022-12-07T00:58:50;3.40;99.90
38398;DHT22;24179;52.094;4.408;2022-12-07T01:01:51;3.40;99.90
38398;DHT22;24179;52.094;4.408;2022-12-07T01:04:52;3.40;99.90
38398;DHT22;24179;52.094;4.408;2022-12-07T01:07:52;3.30;99.90
38398;DHT22;24179;52.094;4.408;2022-12-07T01:10:59;3.20;99.90
38398;DHT22;24179;52.094;4.408;2022-12-07T01:14:00;3.20;99.90
38398;DHT22;24179;52.094;4.408;2022-12-07T01:17:01;3.10;99.90
38398;DHT22;24179;52.094;4.408;2022-12-07T01:20:02;3.00;99.90
38398;DHT22;24179;52.094;4.408;2022-12-07T01:23:03;3.00;99.90
38398;DHT22;24179;52.094;4.408;2022-12-07T01:26:05;3.00;99.90
38398;DHT22;24179;52.094;4.408;2022-12-07T01:29:06;3.10;99.90
38398;DHT22;24179;52.094;4.408;2022-12-07T01:32:07;3.20;99.90
38398;DHT22;24179;52.094;4.408;2022-12-07T01:35:08;3.50;99.90
38398;DHT22;24179;52.094;4.408;2022-12-07T01:38:08;3.90;99.90
38398;DHT22;24179;52.094;4.408;2022-12-07T01:41:09;4.20;99.90
38398;DHT22;24179;52.094;4.408;2022-12-07T01:47:10;4.40;99.90
38398;DHT22;24179;52.094;4.408;2022-12-07T01:50:10;4.40;99.90
38398;DHT22;24179;52.094;4.408;2022-12-07T01:53:10;4.40;99.90
38398;DHT22;24179;52.094;4.408;2022-12-07T01:56:13;4.30;99.90
38398;DHT22;24179;52.094;4.408;2022-12-07T01:59:15;4.10;99.90
38398;DHT22;24179;52.094;4.408;2022-12-07T02:02:18;3.90;99.90
38398;DHT22;24179;52.094;4.408;2022-12-07T02:05:19;3.70;99.90
38398;DHT22;24179;52.094;4.408;2022-12-07T02:08:20;3.60;99.90
38398;DHT22;24179;52.094;4.408;2022-12-07T02:11:20;3.50;99.90
38398;DHT22;24179;52.094;4.408;2022-12-07T02:14:21;3.50;99.90
38398;DHT22;24179;52.094;4.408;2022-12-07T02:20:39;4.00;99.90
38398;DHT22;24179;52.094;4.408;2022-12-07T02:23:51;4.10;99.90
38398;DHT22;24179;52.094;4.408;2022-12-07T02:27:02;4.10;99.90
38398;DHT22;24179;52.094;4.408;2022-12-07T02:33:13;3.90;99.90
38398;DHT22;24179;52.094;4.408;2022-12-07T02:39:20;3.90;99.90
38398;DHT22;24179;52.094;4.408;2022-12-07T02:42:24;3.90;99.90
38398;DHT22;24179;52.094;4.408;2022-12-07T02:45:27;3.90;99.90
38398;DHT22;24179;52.094;4.408;2022-12-07T02:51:49;4.50;99.90
38398;DHT22;24179;52.094;4.408;2022-12-07T02:54:49;4.70;99.90
38398;DHT22;24179;52.094;4.408;2022-12-07T03:01:15;4.70;99.90
38398;DHT22;24179;52.094;4.408;2022-12-07T03:13:45;4.70;99.90
38398;DHT22;24179;52.094;4.408;2022-12-07T03:19:56;4.80;99.90
38398;DHT22;24179;52.094;4.408;2022-12-07T03:22:57;4.90;99.90
38398;DHT22;24179;52.094;4.408;2022-12-07T03:25:58;5.00;99.90
38398;DHT22;24179;52.094;4.408;2022-12-07T03:29:00;5.00;99.90
38398;DHT22;24179;52.094;4.408;2022-12-07T03:32:12;4.90;99.90
38398;DHT22;24179;52.094;4.408;2022-12-07T03:35:18;4.70;99.90
38398;DHT22;24179;52.094;4.408;2022-12-07T03:38:21;4.50;99.90
38398;DHT22;24179;52.094;4.408;2022-12-07T03:41:24;4.40;99.90
38398;DHT22;24179;52.094;4.408;2022-12-07T03:44:25;4.20;99.90
38398;DHT22;24179;52.094;4.408;2022-12-07T03:47:29;4.20;99.90
38398;DHT22;24179;52.094;4.408;2022-12-07T03:53:47;4.30;99.90
38398;DHT22;24179;52.094;4.408;2022-12-07T03:56:53;4.40;99.90
38398;DHT22;24179;52.094;4.408;2022-12-07T03:59:54;4.60;99.90
38398;DHT22;24179;52.094;4.408;2022-12-07T04:02:55;4.80;99.90
38398;DHT22;24179;52.094;4.408;2022-12-07T04:05:56;4.80;99.90
38398;DHT22;24179;52.094;4.408;2022-12-07T04:08:58;4.80;99.90
38398;DHT22;24179;52.094;4.408;2022-12-07T04:11:58;4.70;99.90
38398;DHT22;24179;52.094;4.408;2022-12-07T04:15:01;4.80;99.90
38398;DHT22;24179;52.094;4.408;2022-12-07T04:18:02;4.80;99.90
38398;DHT22;24179;52.094;4.408;2022-12-07T04:21:03;4.70;99.90
38398;DHT22;24179;52.094;4.408;2022-12-07T04:24:03;4.70;99.90
38398;DHT22;24179;52.094;4.408;2022-12-07T04:27:04;4.60;99.90
38398;DHT22;24179;52.094;4.408;2022-12-07T04:30:04;4.60;99.90
38398;DHT22;24179;52.094;4.408;2022-12-07T04:33:05;4.50;99.90
38398;DHT22;24179;52.094;4.408;2022-12-07T04:36:05;4.30;99.90
38398;DHT22;24179;52.094;4.408;2022-12-07T04:39:11;4.20;99.90
38398;DHT22;24179;52.094;4.408;2022-12-07T04:42:13;4.00;99.90
38398;DHT22;24179;52.094;4.408;2022-12-07T04:45:14;3.80;99.90
38398;DHT22;24179;52.094;4.408;2022-12-07T04:48:14;3.60;99.90
38398;DHT22;24179;52.094;4.408;2022-12-07T04:51:25;3.60;99.90
38398;DHT22;24179;52.094;4.408;2022-12-07T04:54:25;3.60;99.90
38398;DHT22;24179;52.094;4.408;2022-12-07T04:57:26;3.60;99.90
38398;DHT22;24179;52.094;4.408;2022-12-07T05:00:26;3.50;99.90
38398;DHT22;24179;52.094;4.408;2022-12-07T05:03:27;3.50;99.90
38398;DHT22;24179;52.094;4.408;2022-12-07T05:06:27;3.50;99.90
38398;DHT22;24179;52.094;4.408;2022-12-07T05:09:28;3.40;99.90
38398;DHT22;24179;52.094;4.408;2022-12-07T05:12:28;3.40;99.90
38398;DHT22;24179;52.094;4.408;2022-12-07T05:15:29;3.30;99.90
38398;DHT22;24179;52.094;4.408;2022-12-07T05:18:29;3.20;99.90
38398;DHT22;24179;52.094;4.408;2022-12-07T05:21:30;3.20;99.90
38398;DHT22;24179;52.094;4.408;2022-12-07T05:24:30;3.10;99.90
38398;DHT22;24179;52.094;4.408;2022-12-07T05:27:30;3.00;99.90
38398;DHT22;24179;52.094;4.408;2022-12-07T05:30:31;3.00;99.90
38398;DHT22;24179;52.094;4.408;2022-12-07T05:33:31;2.90;99.90
38398;DHT22;24179;52.094;4.408;2022-12-07T05:36:32;2.90;99.90
38398;DHT22;24179;52.094;4.408;2022-12-07T05:39:32;2.90;99.90
38398;DHT22;24179;52.094;4.408;2022-12-07T05:42:33;3.00;99.90
38398;DHT22;24179;52.094;4.408;2022-12-07T05:45:33;3.10;99.90
38398;DHT22;24179;52.094;4.408;2022-12-07T05:48:34;3.10;99.90
38398;DHT22;24179;52.094;4.408;2022-12-07T05:51:37;3.40;99.90
38398;DHT22;24179;52.094;4.408;2022-12-07T05:54:38;3.50;99.90
38398;DHT22;24179;52.094;4.408;2022-12-07T05:57:38;3.80;99.90
38398;DHT22;24179;52.094;4.408;2022-12-07T06:00:39;4.00;99.90
38398;DHT22;24179;52.094;4.408;2022-12-07T06:03:39;4.10;99.90
38398;DHT22;24179;52.094;4.408;2022-12-07T06:06:39;4.10;99.90
38398;DHT22;24179;52.094;4.408;2022-12-07T06:09:40;4.20;99.90
38398;DHT22;24179;52.094;4.408;2022-12-07T06:12:41;4.10;99.90
38398;DHT22;24179;52.094;4.408;2022-12-07T06:15:43;4.10;99.90
38398;DHT22;24179;52.094;4.408;2022-12-07T06:18:44;4.00;99.90
38398;DHT22;24179;52.094;4.408;2022-12-07T06:21:44;4.00;99.90
38398;DHT22;24179;52.094;4.408;2022-12-07T06:24:45;4.00;99.90
38398;DHT22;24179;52.094;4.408;2022-12-07T06:27:46;4.00;99.90
38398;DHT22;24179;52.094;4.408;2022-12-07T06:30:46;4.20;99.90
38398;DHT22;24179;52.094;4.408;2022-12-07T06:33:46;4.50;99.90
38398;DHT22;24179;52.094;4.408;2022-12-07T06:36:47;4.50;99.90
38398;DHT22;24179;52.094;4.408;2022-12-07T06:39:55;4.50;99.90
38398;DHT22;24179;52.094;4.408;2022-12-07T06:42:55;4.70;99.90
38398;DHT22;24179;52.094;4.408;2022-12-07T06:45:56;4.90;99.90
38398;DHT22;24179;52.094;4.408;2022-12-07T06:48:56;5.00;99.90
38398;DHT22;24179;52.094;4.408;2022-12-07T06:51:57;4.90;99.90
38398;DHT22;24179;52.094;4.408;2022-12-07T06:54:57;5.00;99.90
38398;DHT22;24179;52.094;4.408;2022-12-07T06:57:58;4.90;99.90
38398;DHT22;24179;52.094;4.408;2022-12-07T07:00:59;4.70;99.90
38398;DHT22;24179;52.094;4.408;2022-12-07T07:03:59;4.70;99.90
38398;DHT22;24179;52.094;4.408;2022-12-07T07:07:00;4.60;99.90
38398;DHT22;24179;52.094;4.408;2022-12-07T07:10:00;4.50;99.90
38398;DHT22;24179;52.094;4.408;2022-12-07T07:13:01;4.50;99.90
38398;DHT22;24179;52.094;4.408;2022-12-07T07:16:01;4.60;99.90
38398;DHT22;24179;52.094;4.408;2022-12-07T07:19:08;4.60;99.90
38398;DHT22;24179;52.094;4.408;2022-12-07T07:22:09;4.50;99.90
38398;DHT22;24179;52.094;4.408;2022-12-07T07:25:10;4.40;99.90
38398;DHT22;24179;52.094;4.408;2022-12-07T07:28:10;4.30;99.90
38398;DHT22;24179;52.094;4.408;2022-12-07T07:31:11;4.50;99.90
38398;DHT22;24179;52.094;4.408;2022-12-07T07:34:11;4.50;99.90
38398;DHT22;24179;52.094;4.408;2022-12-07T07:37:12;4.50;99.90
38398;DHT22;24179;52.094;4.408;2022-12-07T07:40:12;4.70;99.90
38398;DHT22;24179;52.094;4.408;2022-12-07T07:43:13;4.90;99.90
38398;DHT22;24179;52.094;4.408;2022-12-07T07:46:13;5.00;99.90
38398;DHT22;24179;52.094;4.408;2022-12-07T07:49:14;5.10;99.90
38398;DHT22;24179;52.094;4.408;2022-12-07T07:52:14;5.30;99.90
38398;DHT22;24179;52.094;4.408;2022-12-07T07:55:15;5.40;99.90
38398;DHT22;24179;52.094;4.408;2022-12-07T07:58:15;5.40;99.90
38398;DHT22;24179;52.094;4.408;2022-12-07T08:01:16;5.30;99.90
38398;DHT22;24179;52.094;4.408;2022-12-07T08:04:17;5.20;99.90
38398;DHT22;24179;52.094;4.408;2022-12-07T08:07:17;5.10;99.90
38398;DHT22;24179;52.094;4.408;2022-12-07T08:10:17;4.90;99.90
38398;DHT22;24179;52.094;4.408;2022-12-07T08:13:18;4.80;99.90
38398;DHT22;24179;52.094;4.408;2022-12-07T08:16:18;4.80;99.90
38398;DHT22;24179;52.094;4.408;2022-12-07T08:19:19;4.90;99.90
38398;DHT22;24179;52.094;4.408;2022-12-07T08:22:19;5.10;99.90
38398;DHT22;24179;52.094;4.408;2022-12-07T08:25:20;5.20;99.90
38398;DHT22;24179;52.094;4.408;2022-12-07T08:28:22;5.50;99.90
38398;DHT22;24179;52.094;4.408;2022-12-07T08:31:22;5.50;99.90
38398;DHT22;24179;52.094;4.408;2022-12-07T08:34:23;5.40;99.90
38398;DHT22;24179;52.094;4.408;2022-12-07T08:37:23;5.30;99.90
38398;DHT22;24179;52.094;4.408;2022-12-07T08:40:24;5.20;99.90
38398;DHT22;24179;52.094;4.408;2022-12-07T08:43:24;5.20;99.90
38398;DHT22;24179;52.094;4.408;2022-12-07T08:46:32;5.20;99.90
38398;DHT22;24179;52.094;4.408;2022-12-07T08:49:40;5.20;99.90
38398;DHT22;24179;52.094;4.408;2022-12-07T08:52:41;5.60;99.90
38398;DHT22;24179;52.094;4.408;2022-12-07T08:55:43;6.00;99.90
38398;DHT22;24179;52.094;4.408;2022-12-07T08:58:44;6.10;99.90
38398;DHT22;24179;52.094;4.408;2022-12-07T09:01:48;6.00;99.90
38398;DHT22;24179;52.094;4.408;2022-12-07T09:04:48;5.80;99.90
38398;DHT22;24179;52.094;4.408;2022-12-07T09:07:49;5.60;99.90
38398;DHT22;24179;52.094;4.408;2022-12-07T09:10:51;5.60;99.90
38398;DHT22;24179;52.094;4.408;2022-12-07T09:13:51;5.50;99.90
38398;DHT22;24179;52.094;4.408;2022-12-07T09:16:52;5.50;99.90
38398;DHT22;24179;52.094;4.408;2022-12-07T09:19:52;5.40;99.90
38398;DHT22;24179;52.094;4.408;2022-12-07T09:22:53;5.40;99.90
38398;DHT22;24179;52.094;4.408;2022-12-07T09:25:53;5.60;99.90
38398;DHT22;24179;52.094;4.408;2022-12-07T09:28:54;6.40;99.90
38398;DHT22;24179;52.094;4.408;2022-12-07T09:31:54;7.30;99.90
38398;DHT22;24179;52.094;4.408;2022-12-07T09:34:55;8.80;99.90
38398;DHT22;24179;52.094;4.408;2022-12-07T09:37:55;10.20;99.90
38398;DHT22;24179;52.094;4.408;2022-12-07T09:40:56;11.70;99.90
38398;DHT22;24179;52.094;4.408;2022-12-07T09:44:41;12.70;99.90
38398;DHT22;24179;52.094;4.408;2022-12-07T09:47:17;13.70;99.90
38398;DHT22;24179;52.094;4.408;2022-12-07T09:50:27;13.20;99.90
38398;DHT22;24179;52.094;4.408;2022-12-07T09:53:33;11.30;99.90
38398;DHT22;24179;52.094;4.408;2022-12-07T09:56:34;9.80;99.90
38398;DHT22;24179;52.094;4.408;2022-12-07T09:59:35;8.70;99.90
38398;DHT22;24179;52.094;4.408;2022-12-07T10:05:37;8.20;99.90
38398;DHT22;24179;52.094;4.408;2022-12-07T10:08:38;9.40;99.90
38398;DHT22;24179;52.094;4.408;2022-12-07T10:15:11;10.60;99.90
38398;DHT22;24179;52.094;4.408;2022-12-07T10:18:19;10.40;99.90
38398;DHT22;24179;52.094;4.408;2022-12-07T10:21:21;10.20;99.90
38398;DHT22;24179;52.094;4.408;2022-12-07T10:24:23;9.70;99.90
38398;DHT22;24179;52.094;4.408;2022-12-07T10:27:31;10.10;99.90
38398;DHT22;24179;52.094;4.408;2022-12-07T10:30:31;11.50;99.90
38398;DHT22;24179;52.094;4.408;2022-12-07T10:33:34;12.60;99.90
38398;DHT22;24179;52.094;4.408;2022-12-07T10:36:36;13.00;99.90
38398;DHT22;24179;52.094;4.408;2022-12-07T10:39:55;12.10;99.90
38398;DHT22;24179;52.094;4.408;2022-12-07T10:43:03;10.90;99.90
38398;DHT22;24179;52.094;4.408;2022-12-07T10:46:16;9.70;99.90
38398;DHT22;24179;52.094;4.408;2022-12-07T11:05:30;9.90;99.90
38398;DHT22;24179;52.094;4.408;2022-12-07T11:08:47;9.70;99.90
38398;DHT22;24179;52.094;4.408;2022-12-07T11:11:55;9.50;99.90
38398;DHT22;24179;52.094;4.408;2022-12-07T11:15:21;9.50;99.90
38398;DHT22;24179;52.094;4.408;2022-12-07T11:21:26;9.50;99.90
38398;DHT22;24179;52.094;4.408;2022-12-07T11:24:43;9.20;99.90
38398;DHT22;24179;52.094;4.408;2022-12-07T11:34:11;6.90;99.90
38398;DHT22;24179;52.094;4.408;2022-12-07T11:37:16;6.40;99.90
38398;DHT22;24179;52.094;4.408;2022-12-07T11:40:26;6.10;99.90
38398;DHT22;24179;52.094;4.408;2022-12-07T11:43:29;6.00;99.90
38398;DHT22;24179;52.094;4.408;2022-12-07T11:46:40;6.10;99.90
38398;DHT22;24179;52.094;4.408;2022-12-07T11:49:45;6.20;99.90
38398;DHT22;24179;52.094;4.408;2022-12-07T11:52:49;6.30;99.90
38398;DHT22;24179;52.094;4.408;2022-12-07T11:59:33;6.40;99.90
38398;DHT22;24179;52.094;4.408;2022-12-07T12:02:41;6.60;99.90
38398;DHT22;24179;52.094;4.408;2022-12-07T12:05:44;6.70;99.90
38398;DHT22;24179;52.094;4.408;2022-12-07T12:08:53;6.70;99.90
38398;DHT22;24179;52.094;4.408;2022-12-07T12:22:18;7.40;99.90
38398;DHT22;24179;52.094;4.408;2022-12-07T12:25:28;7.80;99.90
38398;DHT22;24179;52.094;4.408;2022-12-07T12:28:31;8.10;99.90
38398;DHT22;24179;52.094;4.408;2022-12-07T12:31:36;8.50;99.90
38398;DHT22;24179;52.094;4.408;2022-12-07T12:34:41;8.90;99.90
38398;DHT22;24179;52.094;4.408;2022-12-07T12:45:03;9.30;99.90
38398;DHT22;24179;52.094;4.408;2022-12-07T12:51:40;8.80;99.90
38398;DHT22;24179;52.094;4.408;2022-12-07T13:01:33;7.20;99.90
38398;DHT22;24179;52.094;4.408;2022-12-07T13:10:53;6.80;99.90
38398;DHT22;24179;52.094;4.408;2022-12-07T13:13:56;6.80;99.90
38398;DHT22;24179;52.094;4.408;2022-12-07T13:20:45;7.20;99.90
38398;DHT22;24179;52.094;4.408;2022-12-07T13:26:48;7.50;99.90
38398;DHT22;24179;52.094;4.408;2022-12-07T13:29:56;7.60;99.90
38398;DHT22;24179;52.094;4.408;2022-12-07T13:32:58;7.60;99.90
38398;DHT22;24179;52.094;4.408;2022-12-07T13:35:59;7.80;99.90
38398;DHT22;24179;52.094;4.408;2022-12-07T13:39:10;8.30;99.90
38398;DHT22;24179;52.094;4.408;2022-12-07T13:42:18;8.40;99.90
38398;DHT22;24179;52.094;4.408;2022-12-07T13:45:21;8.30;99.90
38398;DHT22;24179;52.094;4.408;2022-12-07T13:48:44;8.00;99.90
38398;DHT22;24179;52.094;4.408;2022-12-07T13:51:45;7.80;99.90
38398;DHT22;24179;52.094;4.408;2022-12-07T13:54:59;7.70;99.90
38398;DHT22;24179;52.094;4.408;2022-12-07T13:58:00;7.70;99.90
38398;DHT22;24179;52.094;4.408;2022-12-07T14:01:01;7.60;99.90
38398;DHT22;24179;52.094;4.408;2022-12-07T14:07:25;7.60;99.90
38398;DHT22;24179;52.094;4.408;2022-12-07T14:10:29;7.60;99.90
38398;DHT22;24179;52.094;4.408;2022-12-07T14:13:34;7.60;99.90
38398;DHT22;24179;52.094;4.408;2022-12-07T14:16:35;7.50;99.90
38398;DHT22;24179;52.094;4.408;2022-12-07T14:22:53;7.50;99.90
38398;DHT22;24179;52.094;4.408;2022-12-07T14:26:03;7.50;99.90
38398;DHT22;24179;52.094;4.408;2022-12-07T14:29:20;7.50;99.90
38398;DHT22;24179;52.094;4.408;2022-12-07T14:32:26;7.40;99.90
38398;DHT22;24179;52.094;4.408;2022-12-07T14:35:30;7.40;99.90
38398;DHT22;24179;52.094;4.408;2022-12-07T14:38:30;7.30;99.90
38398;DHT22;24179;52.094;4.408;2022-12-07T14:41:31;7.30;99.90
38398;DHT22;24179;52.094;4.408;2022-12-07T14:44:50;7.30;99.90
38398;DHT22;24179;52.094;4.408;2022-12-07T14:47:50;7.30;99.90
38398;DHT22;24179;52.094;4.408;2022-12-07T14:50:52;7.20;99.90
38398;DHT22;24179;52.094;4.408;2022-12-07T14:53:52;7.20;99.90
38398;DHT22;24179;52.094;4.408;2022-12-07T14:56:53;7.20;99.90
38398;DHT22;24179;52.094;4.408;2022-12-07T14:59:53;7.10;99.90
38398;DHT22;24179;52.094;4.408;2022-12-07T15:02:54;7.00;99.90
38398;DHT22;24179;52.094;4.408;2022-12-07T15:05:55;7.10;99.90
38398;DHT22;24179;52.094;4.408;2022-12-07T15:08:55;7.00;99.90
38398;DHT22;24179;52.094;4.408;2022-12-07T15:11:56;6.90;99.90
38398;DHT22;24179;52.094;4.408;2022-12-07T15:14:56;6.80;99.90
38398;DHT22;24179;52.094;4.408;2022-12-07T15:17:57;6.80;99.90
38398;DHT22;24179;52.094;4.408;2022-12-07T15:20:57;6.70;99.90
38398;DHT22;24179;52.094;4.408;2022-12-07T15:23:58;6.70;99.90
38398;DHT22;24179;52.094;4.408;2022-12-07T15:26:58;6.70;99.90
38398;DHT22;24179;52.094;4.408;2022-12-07T15:29:59;6.80;99.90
38398;DHT22;24179;52.094;4.408;2022-12-07T15:32:59;6.80;99.90
38398;DHT22;24179;52.094;4.408;2022-12-07T15:36:00;6.80;99.90
38398;DHT22;24179;52.094;4.408;2022-12-07T15:39:01;6.70;99.90
38398;DHT22;24179;52.094;4.408;2022-12-07T15:42:01;6.50;99.90
38398;DHT22;24179;52.094;4.408;2022-12-07T15:45:03;6.50;99.90
38398;DHT22;24179;52.094;4.408;2022-12-07T15:48:04;6.40;99.90
38398;DHT22;24179;52.094;4.408;2022-12-07T15:51:06;6.40;99.90
38398;DHT22;24179;52.094;4.408;2022-12-07T15:54:06;6.40;99.90
38398;DHT22;24179;52.094;4.408;2022-12-07T15:57:07;6.30;99.90
38398;DHT22;24179;52.094;4.408;2022-12-07T16:00:08;6.30;99.90
38398;DHT22;24179;52.094;4.408;2022-12-07T16:03:09;6.30;99.90
38398;DHT22;24179;52.094;4.408;2022-12-07T16:06:09;6.30;99.90
38398;DHT22;24179;52.094;4.408;2022-12-07T16:09:10;6.20;99.90
38398;DHT22;24179;52.094;4.408;2022-12-07T16:12:11;6.20;99.90
38398;DHT22;24179;52.094;4.408;2022-12-07T16:15:12;6.20;99.90
38398;DHT22;24179;52.094;4.408;2022-12-07T16:18:12;6.10;99.90
38398;DHT22;24179;52.094;4.408;2022-12-07T16:21:13;6.10;99.90
38398;DHT22;24179;52.094;4.408;2022-12-07T16:24:14;6.10;99.90
38398;DHT22;24179;52.094;4.408;2022-12-07T16:27:15;6.10;99.90
38398;DHT22;24179;52.094;4.408;2022-12-07T16:30:15;6.10;99.90
38398;DHT22;24179;52.094;4.408;2022-12-07T16:33:16;6.10;99.90
38398;DHT22;24179;52.094;4.408;2022-12-07T16:36:17;6.10;99.90
38398;DHT22;24179;52.094;4.408;2022-12-07T16:39:18;6.10;99.90
38398;DHT22;24179;52.094;4.408;2022-12-07T16:42:18;6.10;99.90
38398;DHT22;24179;52.094;4.408;2022-12-07T16:45:19;6.10;99.90
38398;DHT22;24179;52.094;4.408;2022-12-07T16:48:19;6.10;99.90
38398;DHT22;24179;52.094;4.408;2022-12-07T16:51:20;6.00;99.90
38398;DHT22;24179;52.094;4.408;2022-12-07T16:54:20;6.10;99.90
38398;DHT22;24179;52.094;4.408;2022-12-07T16:57:21;6.10;99.90
38398;DHT22;24179;52.094;4.408;2022-12-07T17:00:21;6.10;99.90
38398;DHT22;24179;52.094;4.408;2022-12-07T17:03:22;6.10;99.90
38398;DHT22;24179;52.094;4.408;2022-12-07T17:06:23;6.20;99.90
38398;DHT22;24179;52.094;4.408;2022-12-07T17:09:27;6.20;99.90
38398;DHT22;24179;52.094;4.408;2022-12-07T17:12:28;6.10;99.90
38398;DHT22;24179;52.094;4.408;2022-12-07T17:15:28;6.20;99.90
38398;DHT22;24179;52.094;4.408;2022-12-07T17:18:33;6.20;99.90
38398;DHT22;24179;52.094;4.408;2022-12-07T17:21:33;6.10;99.90
38398;DHT22;24179;52.094;4.408;2022-12-07T17:24:34;6.20;99.90
38398;DHT22;24179;52.094;4.408;2022-12-07T17:27:35;6.20;99.90
38398;DHT22;24179;52.094;4.408;2022-12-07T17:30:35;6.40;99.90
38398;DHT22;24179;52.094;4.408;2022-12-07T17:33:36;6.30;99.90
38398;DHT22;24179;52.094;4.408;2022-12-07T17:36:36;6.30;99.90
38398;DHT22;24179;52.094;4.408;2022-12-07T17:39:37;6.20;99.90
38398;DHT22;24179;52.094;4.408;2022-12-07T17:42:38;6.20;99.90
38398;DHT22;24179;52.094;4.408;2022-12-07T17:45:39;6.10;99.90
38398;DHT22;24179;52.094;4.408;2022-12-07T17:48:40;6.20;99.90
38398;DHT22;24179;52.094;4.408;2022-12-07T17:51:40;6.10;99.90
38398;DHT22;24179;52.094;4.408;2022-12-07T17:54:59;6.20;99.90
38398;DHT22;24179;52.094;4.408;2022-12-07T17:58:00;6.20;99.90
38398;DHT22;24179;52.094;4.408;2022-12-07T18:01:00;6.20;99.90
38398;DHT22;24179;52.094;4.408;2022-12-07T18:04:01;6.30;99.90
38398;DHT22;24179;52.094;4.408;2022-12-07T18:07:02;6.30;99.90
38398;DHT22;24179;52.094;4.408;2022-12-07T18:10:04;6.30;99.90
38398;DHT22;24179;52.094;4.408;2022-12-07T18:13:07;6.30;99.90
38398;DHT22;24179;52.094;4.408;2022-12-07T18:16:27;6.30;99.90
38398;DHT22;24179;52.094;4.408;2022-12-07T18:19:29;6.10;99.90
38398;DHT22;24179;52.094;4.408;2022-12-07T18:22:30;5.70;99.90
38398;DHT22;24179;52.094;4.408;2022-12-07T18:25:30;5.30;99.90
38398;DHT22;24179;52.094;4.408;2022-12-07T18:28:31;5.00;99.90
38398;DHT22;24179;52.094;4.408;2022-12-07T18:31:31;4.90;99.90
38398;DHT22;24179;52.094;4.408;2022-12-07T18:34:32;4.70;99.90
38398;DHT22;24179;52.094;4.408;2022-12-07T18:37:32;4.70;99.90
38398;DHT22;24179;52.094;4.408;2022-12-07T18:40:36;4.70;99.90
38398;DHT22;24179;52.094;4.408;2022-12-07T18:43:36;4.60;99.90
38398;DHT22;24179;52.094;4.408;2022-12-07T18:46:37;4.60;99.90
38398;DHT22;24179;52.094;4.408;2022-12-07T18:49:38;4.50;99.90
38398;DHT22;24179;52.094;4.408;2022-12-07T18:52:38;4.60;99.90
38398;DHT22;24179;52.094;4.408;2022-12-07T18:55:39;4.50;99.90
38398;DHT22;24179;52.094;4.408;2022-12-07T18:58:39;4.50;99.90
38398;DHT22;24179;52.094;4.408;2022-12-07T19:02:03;4.50;99.90
38398;DHT22;24179;52.094;4.408;2022-12-07T19:05:03;4.50;99.90
38398;DHT22;24179;52.094;4.408;2022-12-07T19:08:04;4.50;99.90
38398;DHT22;24179;52.094;4.408;2022-12-07T19:11:04;4.50;99.90
38398;DHT22;24179;52.094;4.408;2022-12-07T19:14:26;4.50;99.90
38398;DHT22;24179;52.094;4.408;2022-12-07T19:17:27;4.50;99.90
38398;DHT22;24179;52.094;4.408;2022-12-07T19:20:27;4.50;99.90
38398;DHT22;24179;52.094;4.408;2022-12-07T20:03:01;4.00;99.90
38398;DHT22;24179;52.094;4.408;2022-12-07T20:06:06;4.00;99.90
38398;DHT22;24179;52.094;4.408;2022-12-07T20:09:06;4.10;99.90
38398;DHT22;24179;52.094;4.408;2022-12-07T20:12:07;4.10;99.90
38398;DHT22;24179;52.094;4.408;2022-12-07T20:15:27;4.20;99.90
38398;DHT22;24179;52.094;4.408;2022-12-07T20:18:27;4.20;99.90
38398;DHT22;24179;52.094;4.408;2022-12-07T20:21:28;4.10;99.90
38398;DHT22;24179;52.094;4.408;2022-12-07T20:24:28;4.10;99.90
38398;DHT22;24179;52.094;4.408;2022-12-07T20:27:29;4.10;99.90
38398;DHT22;24179;52.094;4.408;2022-12-07T20:30:29;4.10;99.90
38398;DHT22;24179;52.094;4.408;2022-12-07T20:33:29;4.10;99.90
38398;DHT22;24179;52.094;4.408;2022-12-07T20:36:30;4.00;99.90
38398;DHT22;24179;52.094;4.408;2022-12-07T20:39:36;4.00;99.90
38398;DHT22;24179;52.094;4.408;2022-12-07T20:42:36;3.90;99.90
38398;DHT22;24179;52.094;4.408;2022-12-07T20:45:46;4.00;99.90
38398;DHT22;24179;52.094;4.408;2022-12-07T20:48:47;4.00;99.90
38398;DHT22;24179;52.094;4.408;2022-12-07T20:51:47;4.00;99.90
38398;DHT22;24179;52.094;4.408;2022-12-07T20:54:51;4.00;99.90
38398;DHT22;24179;52.094;4.408;2022-12-07T20:57:51;4.10;99.90
38398;DHT22;24179;52.094;4.408;2022-12-07T21:00:52;4.10;99.90
38398;DHT22;24179;52.094;4.408;2022-12-07T21:03:59;4.20;99.90
38398;DHT22;24179;52.094;4.408;2022-12-07T21:07:00;4.20;99.90
38398;DHT22;24179;52.094;4.408;2022-12-07T21:10:00;4.20;99.90
38398;DHT22;24179;52.094;4.408;2022-12-07T21:13:01;4.30;99.90
38398;DHT22;24179;52.094;4.408;2022-12-07T21:16:05;4.40;99.90
38398;DHT22;24179;52.094;4.408;2022-12-07T21:19:05;4.50;99.90
38398;DHT22;24179;52.094;4.408;2022-12-07T21:22:06;4.60;99.90
38398;DHT22;24179;52.094;4.408;2022-12-07T21:25:07;4.70;99.90
38398;DHT22;24179;52.094;4.408;2022-12-07T21:28:08;4.80;99.90
38398;DHT22;24179;52.094;4.408;2022-12-07T21:31:08;4.80;99.90
38398;DHT22;24179;52.094;4.408;2022-12-07T21:34:11;4.70;99.90
38398;DHT22;24179;52.094;4.408;2022-12-07T21:37:12;4.70;99.90
38398;DHT22;24179;52.094;4.408;2022-12-07T21:40:12;4.70;99.90
38398;DHT22;24179;52.094;4.408;2022-12-07T21:43:13;4.70;99.90
38398;DHT22;24179;52.094;4.408;2022-12-07T21:46:14;4.70;99.90
38398;DHT22;24179;52.094;4.408;2022-12-07T21:49:14;4.70;99.90
38398;DHT22;24179;52.094;4.408;2022-12-07T21:52:15;4.70;99.90
38398;DHT22;24179;52.094;4.408;2022-12-07T21:55:15;4.70;99.90
38398;DHT22;24179;52.094;4.408;2022-12-07T21:58:16;4.70;99.90
38398;DHT22;24179;52.094;4.408;2022-12-07T22:01:17;4.70;99.90
38398;DHT22;24179;52.094;4.408;2022-12-07T22:04:19;4.80;99.90
38398;DHT22;24179;52.094;4.408;2022-12-07T22:07:20;4.80;99.90